Time;durP1;ratioP1;P1;durP2;ratioP2;P2;SDS_P1;SDS_P2;PMS_P1;PMS_P2;Temp;Humidity;BMP_temperature;BMP_pressure;BME280_temperature;BME280_humidity;BME280_pressure;Samples;Min_cycle;Max_cycle;Signal;HPM_P1;HPM_P2
2022/11/15 00:00:05;;;;;;;78.20;40.20;;;;;;;4.22;94.42;100472.06;103857;1287;22562;-76
2022/11/15 00:02:56;;;;;;;80.90;39.70;;;;;;;4.23;94.55;100465.67;103872;1296;22526;-75
2022/11/15 00:05:27;;;;;;;84.10;40.40;;;;;;;4.21;94.49;100460.41;103865;1304;22482;-77
2022/11/15 00:08:00;;;;;;;85.60;41.40;;;;;;;4.20;94.47;100461.94;103817;1292;25348;-76
2022/11/15 00:10:31;;;;;;;85.00;40.60;;;;;;;4.17;94.29;100455.52;103878;1302;22469;-76
2022/11/15 00:13:05;;;;;;;81.60;39.60;;;;;;;4.11;94.10;100453.14;103840;1278;22579;-77
2022/11/15 00:15:37;;;;;;;87.60;42.30;;;;;;;4.09;94.38;100440.09;103892;1300;22462;-77
2022/11/15 00:18:15;;;;;;;78.30;39.20;;;;;;;4.08;94.30;100440.34;103831;1279;23329;-76
2022/11/15 00:20:47;;;;;;;76.60;39.20;;;;;;;4.07;94.45;100439.19;103810;1289;26619;-76
2022/11/15 00:23:18;;;;;;;86.20;38.70;;;;;;;4.06;94.38;100435.34;103708;1296;25256;-76
2022/11/15 00:25:55;;;;;;;81.00;38.70;;;;;;;4.05;94.33;100435.04;103808;1294;23895;-76
2022/11/15 00:28:27;;;;;;;83.80;40.10;;;;;;;4.01;94.28;100440.19;103849;1298;25408;-75
2022/11/15 00:31:03;;;;;;;82.30;38.60;;;;;;;3.96;94.22;100436.36;103840;1289;22495;-76
2022/11/15 00:33:36;;;;;;;80.90;40.10;;;;;;;3.92;94.45;100439.70;103774;1293;25318;-76
2022/11/15 00:36:10;;;;;;;85.80;39.70;;;;;;;3.91;94.69;100436.23;103842;1303;22615;-76
2022/11/15 00:38:43;;;;;;;76.40;37.10;;;;;;;3.92;94.66;100429.04;104109;1286;22606;-76
2022/11/15 00:41:14;;;;;;;82.10;38.90;;;;;;;3.93;94.56;100422.30;104037;1303;25308;-76
2022/11/15 00:43:46;;;;;;;79.20;39.40;;;;;;;3.93;94.42;100419.14;103842;1304;22469;-76
2022/11/15 00:46:18;;;;;;;88.40;42.60;;;;;;;3.92;94.15;100418.07;103960;1303;22469;-76
2022/11/15 00:48:49;;;;;;;85.70;41.90;;;;;;;3.89;94.15;100421.20;103827;1303;25438;-76
2022/11/15 00:51:20;;;;;;;84.00;38.50;;;;;;;3.86;94.15;100420.83;103812;1303;25298;-76
2022/11/15 00:54:33;;;;;;;81.40;38.50;;;;;;;3.82;94.12;100417.73;103904;1302;25310;-76
2022/11/15 00:57:05;;;;;;;86.60;41.40;;;;;;;3.77;94.12;100415.55;103996;1278;22448;-76
2022/11/15 00:59:37;;;;;;;84.70;40.20;;;;;;;3.77;94.23;100414.45;103880;1292;22463;-76
2022/11/15 01:02:10;;;;;;;84.00;39.80;;;;;;;3.77;94.18;100412.34;103818;1295;23166;-76
2022/11/15 01:04:41;;;;;;;79.40;37.00;;;;;;;3.76;94.13;100410.46;103824;1285;22594;-76
2022/11/15 01:07:14;;;;;;;82.90;36.30;;;;;;;3.76;93.98;100413.16;103809;1289;25304;-76
2022/11/15 01:09:46;;;;;;;79.20;37.40;;;;;;;3.75;93.96;100408.44;103852;1295;22489;-76
2022/11/15 01:12:17;;;;;;;77.90;36.80;;;;;;;3.73;93.63;100411.88;103824;1294;24772;-76
2022/11/15 01:14:48;;;;;;;81.70;38.00;;;;;;;3.70;93.68;100411.23;103803;1300;22495;-76
2022/11/15 01:17:19;;;;;;;79.20;36.90;;;;;;;3.69;93.71;100408.73;103819;1296;25302;-76
2022/11/15 01:19:51;;;;;;;78.60;36.20;;;;;;;3.68;93.76;100408.92;103897;1285;25656;-76
2022/11/15 01:22:23;;;;;;;85.90;39.50;;;;;;;3.68;93.63;100406.78;103881;1285;25192;-76
2022/11/15 01:24:54;;;;;;;82.20;37.50;;;;;;;3.67;93.69;100405.23;103836;1292;25130;-76
2022/11/15 01:27:26;;;;;;;78.90;37.30;;;;;;;3.64;93.57;100400.47;103839;1278;24294;-76
2022/11/15 01:29:57;;;;;;;76.90;36.70;;;;;;;3.61;93.48;100401.42;103831;1302;25463;-76
2022/11/15 01:32:28;;;;;;;75.50;34.90;;;;;;;3.58;93.44;100409.05;103872;1302;24416;-76
2022/11/15 01:35:00;;;;;;;82.20;37.70;;;;;;;3.55;93.56;100404.78;103785;1309;22513;-76
2022/11/15 01:37:31;;;;;;;80.70;39.50;;;;;;;3.46;93.65;100404.02;103840;1281;22605;-76
2022/11/15 01:40:03;;;;;;;82.20;36.80;;;;;;;3.42;94.02;100403.88;103848;1285;25343;-76
2022/11/15 01:42:34;;;;;;;78.40;36.50;;;;;;;3.42;94.12;100395.06;103863;1301;22475;-76
2022/11/15 01:45:07;;;;;;;78.20;36.60;;;;;;;3.41;93.85;100383.70;103829;1302;22481;-76
2022/11/15 01:47:41;;;;;;;78.80;37.10;;;;;;;3.38;93.78;100383.05;103910;1301;22804;-76
2022/11/15 01:50:15;;;;;;;80.60;36.30;;;;;;;3.37;93.61;100375.99;103811;1303;22493;-76
2022/11/15 01:52:49;;;;;;;84.70;36.80;;;;;;;3.36;93.61;100373.49;103794;1288;22927;-76
2022/11/15 01:55:23;;;;;;;77.30;36.10;;;;;;;3.35;93.75;100374.61;103891;1292;22471;-76
2022/11/15 01:57:59;;;;;;;81.00;36.80;;;;;;;3.35;93.59;100366.27;103844;1304;24232;-76
2022/11/15 02:00:31;;;;;;;87.20;38.60;;;;;;;3.33;93.62;100363.79;103838;1304;25271;-76
2022/11/15 02:03:03;;;;;;;81.40;36.80;;;;;;;3.31;93.49;100360.82;103836;1300;24441;-76
2022/11/15 02:05:37;;;;;;;76.90;35.50;;;;;;;3.29;93.37;100363.38;103822;1285;23912;-76
2022/11/15 02:08:19;;;;;;;70.10;33.50;;;;;;;3.27;93.46;100360.66;103871;1278;24266;-77
2022/11/15 02:10:50;;;;;;;84.40;36.70;;;;;;;3.23;93.26;100360.13;103761;1286;22469;-77
2022/11/15 02:13:25;;;;;;;78.80;35.80;;;;;;;3.21;93.49;100358.20;103832;1296;22479;-77
2022/11/15 02:16:06;;;;;;;76.50;34.40;;;;;;;3.21;93.49;100351.57;103867;1278;22578;-77
2022/11/15 02:18:38;;;;;;;;;;;;;;;3.18;93.22;100350.93;103807;1303;22463;-77
2022/11/15 02:21:25;;;;;;;74.80;33.50;;;;;;;3.16;93.47;100341.83;103895;1304;22716;-77
2022/11/15 02:24:35;;;;;;;82.40;35.90;;;;;;;3.16;93.42;100340.48;103838;1277;24234;-78
2022/11/15 02:27:49;;;;;;;78.20;34.90;;;;;;;3.13;93.21;100335.83;103873;1287;22115;-75
2022/11/15 02:30:31;;;;;;;75.10;33.40;;;;;;;3.10;93.20;100335.02;103779;1286;22488;-76
2022/11/15 02:33:06;;;;;;;76.20;34.20;;;;;;;3.07;92.83;100334.70;103807;1278;22487;-76
2022/11/15 02:35:46;;;;;;;70.90;34.40;;;;;;;3.04;92.87;100336.73;103868;1304;22521;-76
2022/11/15 02:38:23;;;;;;;65.30;32.50;;;;;;;3.01;92.82;100334.81;103756;1278;22498;-76
2022/11/15 02:40:59;;;;;;;73.10;33.40;;;;;;;2.98;92.75;100332.91;103769;1297;25321;-76
2022/11/15 02:49:35;;;;;;;71.50;32.00;;;;;;;2.92;92.64;100320.50;103338;1309;22487;-77
2022/11/15 02:52:06;;;;;;;76.00;34.20;;;;;;;2.90;92.37;100319.45;103319;1288;24622;-77
2022/11/15 02:54:38;;;;;;;77.20;34.90;;;;;;;2.85;92.25;100316.64;103358;1286;23337;-77
2022/11/15 02:57:22;;;;;;;74.00;32.40;;;;;;;2.80;92.31;100317.69;103361;1301;25918;-77
2022/11/15 03:00:14;;;;;;;79.40;35.30;;;;;;;2.76;92.45;100311.48;103316;1303;24419;-77
2022/11/15 03:03:05;;;;;;;74.70;33.10;;;;;;;2.68;92.40;100303.90;103324;1309;23219;-76
2022/11/15 03:05:44;;;;;;;71.80;31.70;;;;;;;2.67;92.60;100302.76;103308;1309;26559;-77
2022/11/15 03:08:24;;;;;;;66.10;30.10;;;;;;;2.65;92.34;100300.48;103341;1283;25282;-77
2022/11/15 03:11:05;;;;;;;69.50;32.20;;;;;;;2.62;92.15;100302.69;103526;1308;25370;-76
2022/11/15 03:13:42;;;;;;;65.60;30.50;;;;;;;2.59;92.03;100301.27;103353;1288;25406;-76
2022/11/15 03:16:18;;;;;;;71.60;33.20;;;;;;;2.56;92.03;100304.05;103328;1294;22744;-76
2022/11/15 03:18:54;;;;;;;75.10;32.60;;;;;;;2.53;92.00;100298.68;103425;1294;22598;-77
2022/11/15 03:21:29;;;;;;;66.20;28.70;;;;;;;2.53;92.19;100299.63;103531;1297;22515;-76
2022/11/15 03:24:04;;;;;;;67.50;31.40;;;;;;;2.54;92.32;100291.75;103827;1295;24235;-76
2022/11/15 03:26:39;;;;;;;70.30;30.60;;;;;;;2.54;92.45;100293.08;103910;1302;22485;-76
2022/11/15 03:29:15;;;;;;;68.50;31.80;;;;;;;2.50;91.81;100291.04;103839;1301;23400;-76
2022/11/15 03:31:51;;;;;;;64.40;30.40;;;;;;;2.45;91.87;100294.98;103917;1303;22630;-76
2022/11/15 03:34:30;;;;;;;71.60;33.60;;;;;;;2.43;91.89;100293.14;103963;1283;24242;-76
2022/11/15 03:37:02;;;;;;;67.10;30.70;;;;;;;2.40;91.57;100291.69;103917;1302;22480;-76
2022/11/15 03:39:34;;;;;;;75.70;31.60;;;;;;;2.37;91.60;100292.92;103881;1280;22592;-76
2022/11/15 03:42:18;;;;;;;63.20;28.50;;;;;;;2.32;91.85;100289.25;103854;1301;22495;-76
2022/11/15 03:44:59;;;;;;;79.30;31.80;;;;;;;2.30;91.76;100290.54;103893;1280;24813;-76
2022/11/15 03:47:36;;;;;;;61.50;27.20;;;;;;;2.29;91.84;100284.11;103854;1279;22504;-76
2022/11/15 03:50:12;;;;;;;66.50;30.10;;;;;;;2.27;91.88;100281.39;103773;1296;22676;-77
2022/11/15 03:52:46;;;;;;;69.20;29.00;;;;;;;2.25;91.90;100278.74;103900;1289;22709;-77
2022/11/15 03:55:20;;;;;;;63.00;29.20;;;;;;;2.25;91.57;100275.15;103922;1294;22534;-77
2022/11/15 03:57:54;;;;;;;63.30;29.20;;;;;;;2.22;91.56;100277.64;103962;1302;22484;-76
2022/11/15 04:00:26;;;;;;;59.00;28.40;;;;;;;2.21;91.86;100271.42;103889;1303;22460;-76
2022/11/15 04:02:58;;;;;;;65.90;28.50;;;;;;;2.21;91.69;100269.61;103850;1303;22591;-76
2022/11/15 04:05:29;;;;;;;61.60;28.60;;;;;;;2.17;91.43;100273.40;103756;1302;22483;-76
2022/11/15 04:08:01;;;;;;;66.90;30.70;;;;;;;2.13;91.44;100277.48;103863;1288;22487;-76
2022/11/15 04:10:32;;;;;;;60.80;28.40;;;;;;;2.10;91.52;100275.73;103787;1303;22470;-76
2022/11/15 04:13:04;;;;;;;68.50;29.60;;;;;;;2.06;91.70;100271.16;103835;1289;24223;-76
2022/11/15 04:15:37;;;;;;;70.10;31.30;;;;;;;2.03;91.47;100270.10;103888;1299;25281;-76
2022/11/15 04:18:08;;;;;;;63.10;28.50;;;;;;;1.99;91.26;100272.92;103910;1304;25249;-76
2022/11/15 04:26:21;;;;;;;69.40;28.90;;;;;;;1.92;91.69;100275.48;103887;1303;22417;-75
2022/11/15 04:31:56;;;;;;;70.20;30.20;;;;;;;1.91;91.70;100273.30;103288;1285;24240;-77
2022/11/15 04:34:28;;;;;;;69.40;28.80;;;;;;;1.90;91.44;100269.88;103368;1304;22681;-76
2022/11/15 04:39:48;;;;;;;72.30;31.20;;;;;;;1.86;91.46;100263.82;103275;1305;23221;-76
2022/11/15 04:42:19;;;;;;;64.00;27.70;;;;;;;1.85;91.33;100262.65;103394;1307;25624;-76
2022/11/15 04:44:50;;;;;;;69.10;29.00;;;;;;;1.83;91.45;100260.86;103328;1309;22542;-77
2022/11/15 04:47:21;;;;;;;57.30;27.90;;;;;;;1.84;91.54;100257.01;103312;1306;22540;-76
2022/11/15 04:49:52;;;;;;;66.40;26.80;;;;;;;1.85;91.62;100253.84;103344;1308;24661;-77
2022/11/15 04:52:24;;;;;;;66.80;30.00;;;;;;;1.83;91.12;100257.16;103359;1299;25407;-78
2022/11/15 04:54:55;;;;;;;63.40;29.40;;;;;;;1.78;90.90;100259.69;103371;1285;22500;-78
2022/11/15 04:57:26;;;;;;;66.80;28.40;;;;;;;1.74;91.22;100257.39;103421;1307;22636;-78
2022/11/15 04:59:57;;;;;;;65.20;28.50;;;;;;;1.74;91.46;100252.91;103621;1301;22490;-78
2022/11/15 05:05:17;;;;;;;65.10;30.90;;;;;;;1.68;91.32;100243.42;103927;1280;22584;-78
2022/11/15 05:07:48;;;;;;;64.00;28.30;;;;;;;1.64;90.99;100244.42;103914;1303;22632;-78
2022/11/15 05:10:20;;;;;;;65.10;29.50;;;;;;;1.60;91.08;100244.58;103933;1286;22621;-78
2022/11/15 05:12:51;;;;;;;63.30;27.70;;;;;;;1.57;91.26;100241.33;103939;1291;22626;-77
2022/11/15 05:15:23;;;;;;;64.60;27.30;;;;;;;1.55;91.28;100240.41;103668;1303;245505;-76
2022/11/15 05:18:00;;;;;;;66.50;30.30;;;;;;;1.55;91.32;100242.63;103722;1286;24313;-75
2022/11/15 05:20:31;;;;;;;79.30;33.50;;;;;;;1.53;91.64;100240.14;103829;1275;22495;-75
2022/11/15 05:23:03;;;;;;;72.30;31.80;;;;;;;1.52;91.36;100242.36;103885;1281;22572;-78
2022/11/15 05:25:34;;;;;;;73.60;33.30;;;;;;;1.46;91.28;100240.33;104016;1302;23201;-79
2022/11/15 05:28:08;;;;;;;69.80;30.10;;;;;;;1.40;91.56;100232.87;103945;1301;22498;-77
2022/11/15 05:30:40;;;;;;;69.50;30.60;;;;;;;1.38;91.43;100231.56;103969;1303;25374;-78
2022/11/15 05:33:11;;;;;;;74.30;32.70;;;;;;;1.35;91.46;100229.64;104009;1296;24350;-79
2022/11/15 05:35:48;;;;;;;76.30;33.00;;;;;;;1.35;91.76;100226.12;104101;1279;22465;-78
2022/11/15 05:38:19;;;;;;;75.80;32.60;;;;;;;1.34;91.39;100228.66;103926;1279;25433;-77
2022/11/15 05:40:54;;;;;;;73.70;29.50;;;;;;;1.29;91.15;100227.70;104062;1279;22522;-79
2022/11/15 05:43:25;;;;;;;69.70;30.30;;;;;;;1.27;91.46;100228.36;103912;1279;26469;-76
2022/11/15 05:46:00;;;;;;;68.80;31.10;;;;;;;1.28;91.49;100223.23;103883;1302;22591;-77
2022/11/15 05:48:36;;;;;;;68.50;30.40;;;;;;;1.25;90.88;100226.43;103812;1278;24231;-77
2022/11/15 05:51:09;;;;;;;76.90;28.60;;;;;;;1.21;91.03;100223.13;103977;1282;24244;-76
2022/11/15 05:53:42;;;;;;;73.20;29.00;;;;;;;1.21;91.61;100218.95;103811;1286;23263;-76
2022/11/15 05:56:14;;;;;;;63.10;30.10;;;;;;;1.22;91.67;100220.05;103788;1303;25560;-77
2022/11/15 05:58:45;;;;;;;69.00;30.90;;;;;;;1.17;91.09;100220.66;103785;1279;25324;-76
2022/11/15 06:01:17;;;;;;;74.50;31.30;;;;;;;1.13;91.14;100225.13;103853;1303;22402;-76
2022/11/15 06:03:48;;;;;;;74.30;31.20;;;;;;;1.13;91.61;100225.45;103701;1294;22601;-77
2022/11/15 06:06:19;;;;;;;79.60;34.40;;;;;;;1.12;91.37;100218.16;103705;1302;22634;-76
2022/11/15 06:08:51;;;;;;;73.80;31.80;;;;;;;1.13;91.65;100219.31;103781;1279;23050;-75
2022/11/15 06:11:22;;;;;;;76.90;32.60;;;;;;;1.14;91.36;100220.86;103784;1271;25554;-76
2022/11/15 06:13:54;;;;;;;89.50;40.20;;;;;;;1.12;91.02;100225.15;103734;1303;22519;-76
2022/11/15 06:16:25;;;;;;;90.10;39.10;;;;;;;1.10;91.57;100228.61;103720;1302;22609;-73
2022/11/15 06:18:58;;;;;;;96.00;41.50;;;;;;;1.08;91.78;100230.85;103718;1289;24247;-73
2022/11/15 06:21:29;;;;;;;96.00;42.80;;;;;;;1.05;91.72;100228.32;103738;1285;24424;-74
2022/11/15 06:24:01;;;;;;;108.40;44.50;;;;;;;1.02;91.66;100231.88;103762;1281;22484;-73
2022/11/15 06:26:32;;;;;;;92.80;39.70;;;;;;;1.04;92.00;100231.31;103776;1303;28371;-73
2022/11/15 06:29:05;;;;;;;94.80;39.40;;;;;;;1.06;92.19;100230.11;103730;1302;22477;-73
2022/11/15 06:31:36;;;;;;;93.30;38.90;;;;;;;1.08;92.14;100231.09;103672;1303;22494;-73
2022/11/15 06:34:08;;;;;;;94.90;36.50;;;;;;;1.08;91.88;100234.07;103773;1295;24419;-74
2022/11/15 06:36:40;;;;;;;93.00;40.70;;;;;;;1.06;92.02;100236.86;103681;1303;22509;-74
2022/11/15 06:39:13;;;;;;;93.60;39.60;;;;;;;1.03;92.29;100237.46;103713;1277;23869;-74
2022/11/15 06:41:44;;;;;;;89.70;37.70;;;;;;;1.02;92.38;100236.69;103731;1296;22499;-73
2022/11/15 06:44:18;;;;;;;94.50;40.90;;;;;;;0.98;92.48;100236.98;103737;1279;22487;-73
2022/11/15 06:46:50;;;;;;;91.50;38.80;;;;;;;0.97;92.63;100238.17;103657;1278;22617;-73
2022/11/15 06:49:22;;;;;;;86.50;38.70;;;;;;;0.97;92.69;100236.98;103704;1296;23349;-73
2022/11/15 06:51:54;;;;;;;109.10;44.30;;;;;;;0.98;92.73;100230.06;103716;1284;22577;-73
2022/11/15 06:54:26;;;;;;;97.00;43.60;;;;;;;0.99;92.78;100229.58;103710;1286;22464;-73
2022/11/15 06:56:58;;;;;;;136.40;57.10;;;;;;;1.01;93.14;100229.39;103761;1295;24029;-73
2022/11/15 06:59:31;;;;;;;133.50;55.00;;;;;;;1.03;93.26;100234.84;103735;1295;22489;-73
2022/11/15 07:02:03;;;;;;;132.60;54.10;;;;;;;1.05;93.33;100232.95;103843;1288;22521;-73
2022/11/15 07:04:35;;;;;;;117.10;54.20;;;;;;;1.06;93.32;100229.16;103723;1303;22433;-75
2022/11/15 07:07:07;;;;;;;119.00;53.10;;;;;;;1.07;93.50;100237.31;103890;1279;23224;-75
2022/11/15 07:09:38;;;;;;;122.80;52.60;;;;;;;1.11;93.53;100243.31;103787;1279;22516;-75
2022/11/15 07:12:09;;;;;;;82.30;37.90;;;;;;;1.11;93.75;100256.96;103798;1296;22617;-75
2022/11/15 07:14:41;;;;;;;73.60;30.80;;;;;;;1.06;93.81;100263.48;103825;1275;22498;-75
2022/11/15 07:17:12;;;;;;;66.40;28.50;;;;;;;0.96;93.57;100255.86;103683;1279;24423;-75
2022/11/15 07:19:46;;;;;;;67.60;28.70;;;;;;;0.90;93.77;100254.51;103867;1303;22502;-75
2022/11/15 07:22:19;;;;;;;76.00;30.60;;;;;;;0.89;94.03;100256.02;103854;1279;22506;-75
2022/11/15 07:24:51;;;;;;;75.30;31.80;;;;;;;0.92;94.31;100256.91;103747;1275;26657;-75
2022/11/15 07:27:22;;;;;;;74.80;33.10;;;;;;;0.95;94.40;100260.89;103759;1286;22495;-75
2022/11/15 07:29:55;;;;;;;75.20;33.10;;;;;;;0.97;94.84;100263.38;103684;1279;23374;-75
2022/11/15 07:32:26;;;;;;;77.40;34.80;;;;;;;1.00;95.11;100267.02;103717;1303;25224;-75
2022/11/15 07:34:57;;;;;;;69.90;31.00;;;;;;;1.04;95.10;100262.56;103753;1289;23862;-75
2022/11/15 07:37:29;;;;;;;73.40;32.60;;;;;;;1.09;95.27;100256.92;103802;1303;22514;-75
2022/11/15 07:40:00;;;;;;;68.10;31.60;;;;;;;1.14;95.23;100250.65;103688;1303;22491;-75
2022/11/15 07:45:23;;;;;;;80.80;35.00;;;;;;;1.24;95.30;100240.99;103753;1301;22483;-75
2022/11/15 07:47:56;;;;;;;88.40;36.20;;;;;;;1.30;95.20;100238.08;103825;1297;25418;-75
2022/11/15 07:50:29;;;;;;;80.30;36.70;;;;;;;1.35;95.47;100239.64;103770;1281;26493;-75
2022/11/15 07:53:02;;;;;;;82.60;37.30;;;;;;;1.40;95.67;100238.92;103812;1293;22481;-75
2022/11/15 07:55:34;;;;;;;85.30;38.90;;;;;;;1.47;96.13;100242.34;103847;1281;22580;-75
2022/11/15 07:58:08;;;;;;;73.90;37.20;;;;;;;1.54;96.54;100243.27;103754;1303;25263;-75
2022/11/15 08:00:39;;;;;;;84.90;37.20;;;;;;;1.61;96.78;100245.19;103743;1300;25283;-75
2022/11/15 08:03:15;;;;;;;81.90;40.00;;;;;;;1.68;96.85;100241.05;103668;1303;22593;-75
2022/11/15 08:05:54;;;;;;;84.70;39.60;;;;;;;1.75;96.72;100241.66;103821;1298;22830;-75
2022/11/15 08:08:34;;;;;;;91.60;40.00;;;;;;;1.82;97.12;100241.22;103741;1295;22676;-75
2022/11/15 08:11:06;;;;;;;85.00;40.30;;;;;;;1.89;97.44;100243.84;103743;1292;22740;-73
2022/11/15 08:13:38;;;;;;;84.20;40.60;;;;;;;1.97;97.56;100244.18;103719;1303;22652;-73
2022/11/15 08:16:09;;;;;;;98.50;43.70;;;;;;;2.02;97.45;100239.12;103707;1282;25231;-74
2022/11/15 08:18:40;;;;;;;95.10;44.40;;;;;;;2.10;97.84;100240.30;103721;1297;23925;-74
2022/11/15 08:21:18;;;;;;;86.40;40.30;;;;;;;2.19;98.04;100238.65;103816;1302;25317;-74
2022/11/15 08:23:50;;;;;;;92.70;41.50;;;;;;;2.26;98.04;100233.72;103633;1288;25365;-74
2022/11/15 08:26:21;;;;;;;89.50;41.30;;;;;;;2.32;98.06;100228.71;103709;1302;24231;-74
2022/11/15 08:28:52;;;;;;;94.70;42.60;;;;;;;2.38;98.10;100225.83;103715;1273;22537;-74
2022/11/15 08:31:23;;;;;;;105.20;43.40;;;;;;;2.44;98.01;100218.71;103772;1303;24502;-73
2022/11/15 08:33:56;;;;;;;87.70;41.50;;;;;;;2.51;98.25;100220.48;103706;1303;22504;-74
2022/11/15 08:36:28;;;;;;;99.00;45.80;;;;;;;2.58;98.51;100221.10;103780;1284;25362;-74
2022/11/15 08:39:00;;;;;;;96.30;47.70;;;;;;;2.67;98.76;100219.66;103745;1303;22498;-74
2022/11/15 08:41:36;;;;;;;95.40;47.10;;;;;;;2.75;99.01;100215.39;103754;1282;22590;-74
2022/11/15 08:44:07;;;;;;;92.20;45.80;;;;;;;2.84;99.18;100211.02;103721;1295;25308;-74
2022/11/15 08:46:38;;;;;;;101.50;46.40;;;;;;;2.91;99.13;100203.85;103750;1279;24713;-74
2022/11/15 08:49:11;;;;;;;99.20;45.80;;;;;;;2.99;99.37;100205.48;103807;1297;22474;-74
2022/11/15 08:51:42;;;;;;;95.10;46.60;;;;;;;3.08;99.59;100207.10;103750;1295;22475;-74
2022/11/15 08:54:13;;;;;;;92.50;47.90;;;;;;;3.16;99.75;100201.55;103760;1271;22676;-74
2022/11/15 08:56:44;;;;;;;95.00;46.80;;;;;;;3.24;99.76;100193.48;103830;1295;24146;-74
2022/11/15 08:59:15;;;;;;;99.40;47.30;;;;;;;3.31;99.79;100190.06;103850;1279;23924;-74
2022/11/15 09:01:48;;;;;;;103.00;49.20;;;;;;;3.40;99.97;100193.79;103848;1300;22514;-74
2022/11/15 09:04:19;;;;;;;100.90;48.80;;;;;;;3.49;100.00;100192.48;103897;1301;24377;-74
2022/11/15 09:06:51;;;;;;;101.00;50.40;;;;;;;3.60;100.00;100188.97;103935;1281;22642;-74
2022/11/15 09:09:23;;;;;;;95.40;49.00;;;;;;;3.70;100.00;100188.21;103938;1294;22554;-74
2022/11/15 09:11:56;;;;;;;102.90;50.00;;;;;;;3.80;100.00;100189.46;103902;1271;22548;-74
2022/11/15 09:14:29;;;;;;;92.80;47.80;;;;;;;3.93;100.00;100192.43;103738;1298;24420;-74
2022/11/15 09:17:03;;;;;;;92.60;46.90;;;;;;;4.04;100.00;100195.69;103703;1302;22479;-74
2022/11/15 09:19:34;;;;;;;91.40;45.30;;;;;;;4.16;100.00;100200.66;103700;1279;24288;-74
2022/11/15 09:22:08;;;;;;;98.50;47.90;;;;;;;4.27;100.00;100200.74;103746;1297;22502;-74
2022/11/15 09:24:42;;;;;;;103.70;50.60;;;;;;;4.39;100.00;100201.90;103751;1286;24412;-74
2022/11/15 09:27:14;;;;;;;101.40;53.40;;;;;;;4.52;100.00;100203.42;103728;1302;22472;-74
2022/11/15 09:29:47;;;;;;;98.00;47.40;;;;;;;4.67;100.00;100203.15;103798;1296;22490;-74
2022/11/15 09:32:19;;;;;;;100.10;48.70;;;;;;;4.79;100.00;100200.70;103782;1296;24313;-74
2022/11/15 09:34:53;;;;;;;97.90;48.50;;;;;;;4.87;100.00;100196.14;103752;1295;22520;-74
2022/11/15 09:37:25;;;;;;;93.30;48.00;;;;;;;4.98;100.00;100188.44;103871;1303;23850;-74
2022/11/15 09:39:58;;;;;;;89.80;43.60;;;;;;;5.09;100.00;100184.86;103791;1284;22509;-74
2022/11/15 09:42:53;;;;;;;97.50;46.70;;;;;;;5.25;100.00;100181.98;103674;1295;25312;-74
2022/11/15 09:45:35;;;;;;;81.30;42.60;;;;;;;5.36;100.00;100173.48;103699;1303;22518;-74
2022/11/15 09:48:35;;;;;;;84.90;43.70;;;;;;;5.48;100.00;100169.73;103825;1288;22974;-74
2022/11/15 09:51:10;;;;;;;78.40;40.40;;;;;;;5.62;100.00;100173.48;103255;1303;22521;-74
2022/11/15 09:53:48;;;;;;;83.50;40.80;;;;;;;5.72;100.00;100169.39;103319;1292;22610;-74
2022/11/15 09:56:24;;;;;;;75.90;36.80;;;;;;;5.80;100.00;100166.29;103249;1288;25268;-74
2022/11/15 09:59:12;;;;;;;76.90;37.50;;;;;;;5.90;100.00;100167.54;103216;1301;25321;-75
2022/11/15 10:01:51;;;;;;;70.60;33.40;;;;;;;6.04;100.00;100163.31;103283;1286;22484;-74
2022/11/15 10:04:24;;;;;;;70.40;34.40;;;;;;;6.16;100.00;100159.98;103332;1283;22663;-74
2022/11/15 10:07:03;;;;;;;68.90;32.00;;;;;;;6.26;100.00;100152.48;103267;1286;26564;-74
2022/11/15 10:09:39;;;;;;;70.60;33.60;;;;;;;6.33;100.00;100147.39;103251;1289;22493;-74
2022/11/15 10:12:13;;;;;;;67.40;33.00;;;;;;;6.42;100.00;100147.69;103251;1307;25204;-75
2022/11/15 10:14:46;;;;;;;62.80;32.40;;;;;;;6.49;100.00;100142.10;103396;1309;25570;-75
2022/11/15 10:17:29;;;;;;;66.10;29.10;;;;;;;6.57;100.00;100143.50;103372;1306;23082;-75
2022/11/15 10:20:08;;;;;;;59.40;27.40;;;;;;;6.63;100.00;100138.34;103237;1286;26126;-74
2022/11/15 10:22:47;;;;;;;51.70;26.90;;;;;;;6.68;100.00;100132.67;103304;1287;25488;-75
2022/11/15 10:25:24;;;;;;;56.50;28.10;;;;;;;6.74;100.00;100137.20;103288;1277;22589;-75
2022/11/15 10:28:00;;;;;;;58.10;29.80;;;;;;;6.80;100.00;100134.25;103431;1281;25381;-74
2022/11/15 10:30:38;;;;;;;56.00;27.90;;;;;;;6.86;100.00;100127.66;103657;1302;25547;-74
2022/11/15 10:33:22;;;;;;;57.70;27.90;;;;;;;6.95;100.00;100125.67;103689;1302;22481;-74
2022/11/15 10:36:20;;;;;;;62.20;29.70;;;;;;;7.07;100.00;100122.01;103754;1303;22593;-75
2022/11/15 10:38:57;;;;;;;53.80;26.60;;;;;;;7.19;100.00;100113.25;103821;1271;22522;-74
2022/11/15 10:41:40;;;;;;;55.40;27.10;;;;;;;7.29;100.00;100104.42;103683;1275;25254;-74
2022/11/15 10:44:26;;;;;;;52.60;22.50;;;;;;;7.39;100.00;100102.68;103707;1279;22534;-74
2022/11/15 10:47:26;;;;;;;53.20;24.90;;;;;;;7.51;100.00;100101.22;103840;1279;25475;-75
2022/11/15 10:50:00;;;;;;;53.30;26.90;;;;;;;7.63;100.00;100091.71;103396;1307;22612;-75
2022/11/15 10:52:34;;;;;;;49.20;25.10;;;;;;;7.74;100.00;100087.02;103592;1299;26544;-75
2022/11/15 10:55:22;;;;;;;50.50;25.50;;;;;;;7.87;100.00;100093.89;103579;1296;22563;-74
2022/11/15 10:57:56;;;;;;;50.20;24.20;;;;;;;7.96;100.00;100088.80;103317;1287;22479;-74
2022/11/15 11:00:34;;;;;;;49.40;24.40;;;;;;;8.04;99.92;100089.89;103423;1288;22488;-73
2022/11/15 11:03:21;;;;;;;54.90;26.40;;;;;;;8.09;99.96;100084.90;103493;1293;22535;-73
2022/11/15 11:06:07;;;;;;;50.90;26.20;;;;;;;8.14;99.68;100079.48;103321;1302;25240;-74
2022/11/15 11:08:39;;;;;;;53.70;25.60;;;;;;;8.23;99.73;100078.58;103372;1303;22503;-74
2022/11/15 11:11:10;;;;;;;49.30;23.10;;;;;;;8.31;99.58;100082.96;103329;1282;25463;-74
2022/11/15 11:13:43;;;;;;;49.00;24.60;;;;;;;8.39;99.46;100081.84;103353;1307;24264;-73
2022/11/15 11:16:49;;;;;;;50.00;24.70;;;;;;;8.42;99.29;100079.53;103334;1306;23919;-73
2022/11/15 11:19:40;;;;;;;52.40;25.40;;;;;;;8.45;99.24;100072.16;102972;1312;22752;-73
2022/11/15 11:22:21;;;;;;;43.90;22.80;;;;;;;8.48;99.03;100070.17;102966;1312;22569;-74
2022/11/15 11:25:14;;;;;;;46.70;24.20;;;;;;;8.54;99.08;100072.20;103057;1293;25549;-74
2022/11/15 11:27:58;;;;;;;44.80;23.20;;;;;;;8.56;99.06;100068.70;103010;1302;22491;-73
2022/11/15 11:30:42;;;;;;;41.50;20.60;;;;;;;8.60;99.16;100061.88;103231;1307;25328;-74
2022/11/15 11:33:21;;;;;;;44.30;22.60;;;;;;;8.69;98.95;100060.11;103205;1301;22603;-74
2022/11/15 11:36:05;;;;;;;41.20;20.40;;;;;;;8.74;98.83;100052.48;103190;1309;25500;-74
2022/11/15 11:38:50;;;;;;;42.50;21.70;;;;;;;8.75;98.75;100050.98;103228;1294;24236;-73
2022/11/15 11:41:44;;;;;;;40.90;21.90;;;;;;;8.80;98.64;100044.94;103225;1280;25527;-74
2022/11/15 11:44:32;;;;;;;45.40;21.00;;;;;;;8.84;98.42;100044.73;103300;1301;25381;-74
2022/11/15 11:47:11;;;;;;;39.10;21.00;;;;;;;8.90;98.65;100041.88;103368;1309;22486;-74
2022/11/15 11:49:50;;;;;;;45.10;20.80;;;;;;;8.95;98.27;100042.34;103199;1309;22615;-74
2022/11/15 11:52:28;;;;;;;48.30;23.60;;;;;;;9.01;97.84;100037.80;103251;1277;22499;-74
2022/11/15 11:55:12;;;;;;;42.50;21.00;;;;;;;9.06;97.97;100034.38;103311;1287;22511;-74
2022/11/15 11:57:49;;;;;;;37.90;18.70;;;;;;;9.08;97.84;100024.70;103741;1295;24295;-74
2022/11/15 12:00:24;;;;;;;42.50;19.30;;;;;;;9.10;97.74;100025.45;103630;1274;22593;-73
2022/11/15 12:03:09;;;;;;;38.50;16.90;;;;;;;9.13;97.54;100019.27;103763;1303;22662;-74
2022/11/15 12:05:44;;;;;;;37.30;17.50;;;;;;;9.15;97.30;100016.88;103724;1279;24354;-74